Time;durP1;ratioP1;P1;durP2;ratioP2;P2;SDS_P1;SDS_P2;PMS_P1;PMS_P2;Temp;Humidity;BMP_temperature;BMP_pressure;BME280_temperature;BME280_humidity;BME280_pressure;Samples;Min_cycle;Max_cycle;Signal;HPM_P1;HPM_P2
2023/07/15 00:01:43;;;;;;;0.30;0.30;;;26.80;74.90;;;;;;4964470;28;20210;-85
2023/07/15 00:04:14;;;;;;;0.35;0.35;;;26.70;74.80;;;;;;4963830;28;20289;-85
2023/07/15 00:06:45;;;;;;;1.45;0.75;;;26.70;75.00;;;;;;4965678;28;20197;-85
2023/07/15 00:09:15;;;;;;;0.40;0.25;;;26.70;75.40;;;;;;4965609;28;20201;-86
2023/07/15 00:11:44;;;;;;;0.40;0.40;;;26.70;75.10;;;;;;4965629;28;20202;-85
2023/07/15 00:14:17;;;;;;;0.82;0.63;;;26.70;75.20;;;;;;4960939;28;20200;-86
2023/07/15 00:16:46;;;;;;;0.30;0.30;;;26.70;75.20;;;;;;4967967;28;20249;-87
2023/07/15 00:19:15;;;;;;;0.52;0.50;;;26.70;75.20;;;;;;4966321;28;20261;-86
2023/07/15 00:21:45;;;;;;;0.73;0.73;;;26.70;75.20;;;;;;4967739;28;20205;-83
2023/07/15 00:24:14;;;;;;;0.50;0.50;;;26.70;75.30;;;;;;4966285;28;20216;-83
2023/07/15 00:26:47;;;;;;;0.75;0.75;;;26.60;75.30;;;;;;4970319;28;20240;-85
2023/07/15 00:29:16;;;;;;;0.70;0.50;;;26.60;75.30;;;;;;4968210;28;20274;-85
2023/07/15 00:31:45;;;;;;;0.35;0.35;;;26.60;75.80;;;;;;4968973;28;20205;-86
2023/07/15 00:34:14;;;;;;;0.30;0.30;;;26.60;75.50;;;;;;4967920;28;20198;-85
2023/07/15 00:36:42;;;;;;;0.38;0.38;;;26.50;75.80;;;;;;4962792;28;20205;-85
2023/07/15 00:39:12;;;;;;;0.65;0.40;;;26.50;75.90;;;;;;4969557;28;21894;-84
2023/07/15 00:41:41;;;;;;;0.50;0.50;;;26.50;75.80;;;;;;4951020;28;20677;-85
2023/07/15 00:44:14;;;;;;;0.20;0.20;;;26.50;75.90;;;;;;4944984;28;20472;-86
2023/07/15 00:47:21;;;;;;;0.50;0.50;;;26.50;76.10;;;;;;4969289;28;20682;-86
2023/07/15 00:49:52;;;;;;;0.32;0.32;;;26.40;76.40;;;;;;4959168;28;20194;-87
2023/07/15 00:52:22;;;;;;;0.55;0.40;;;26.40;76.40;;;;;;4965612;28;20205;-86
2023/07/15 00:54:54;;;;;;;0.28;0.28;;;26.40;76.10;;;;;;4953238;28;20198;-85
2023/07/15 00:57:23;;;;;;;1.58;0.40;;;26.40;76.10;;;;;;4953067;28;20194;-85
2023/07/15 00:59:58;;;;;;;0.77;0.57;;;26.40;76.40;;;;;;4967986;28;20213;-85
2023/07/15 01:02:27;;;;;;;0.63;0.50;;;26.40;76.40;;;;;;4969966;28;20221;-85
2023/07/15 01:04:57;;;;;;;0.50;0.50;;;26.40;76.70;;;;;;4965156;28;20664;-85
2023/07/15 01:07:26;;;;;;;0.30;0.30;;;26.40;76.70;;;;;;4969512;28;20678;-84
2023/07/15 01:09:55;;;;;;;0.55;0.55;;;26.40;76.60;;;;;;4967580;28;20194;-84
2023/07/15 01:12:23;;;;;;;0.43;0.43;;;26.30;76.50;;;;;;4973008;28;20201;-85
2023/07/15 01:14:52;;;;;;;1.20;0.30;;;26.40;76.60;;;;;;4970482;28;20198;-85
2023/07/15 01:17:20;;;;;;;0.70;0.60;;;26.30;76.60;;;;;;4967416;28;20222;-85
2023/07/15 01:19:49;;;;;;;1.58;0.55;;;26.30;76.60;;;;;;4970653;28;20230;-85
2023/07/15 01:22:20;;;;;;;0.90;0.80;;;26.30;76.70;;;;;;4966138;28;20455;-85
2023/07/15 01:24:50;;;;;;;0.95;0.93;;;26.30;76.90;;;;;;4971876;28;20229;-87
2023/07/15 01:27:19;;;;;;;0.85;0.40;;;26.30;77.10;;;;;;4970868;28;20197;-86
2023/07/15 01:29:48;;;;;;;0.40;0.40;;;26.20;77.40;;;;;;4964331;28;20213;-86
2023/07/15 01:32:17;;;;;;;0.47;0.47;;;26.30;77.10;;;;;;4968532;28;20567;-88
2023/07/15 01:34:47;;;;;;;0.55;0.55;;;26.20;77.20;;;;;;4963764;28;20286;-85
2023/07/15 01:37:16;;;;;;;0.63;0.35;;;26.20;77.50;;;;;;4967639;28;20198;-85
2023/07/15 01:39:47;;;;;;;0.38;0.38;;;26.20;77.20;;;;;;4970022;28;20565;-84
2023/07/15 01:42:17;;;;;;;2.13;0.90;;;26.20;77.30;;;;;;4954262;28;20194;-86
2023/07/15 01:44:45;;;;;;;1.15;0.50;;;26.20;77.40;;;;;;4972943;28;20197;-84
2023/07/15 01:47:14;;;;;;;0.40;0.40;;;26.20;77.60;;;;;;4965083;28;20222;-86
2023/07/15 01:49:43;;;;;;;1.00;0.63;;;26.20;77.60;;;;;;4972895;28;20210;-86
2023/07/15 01:52:11;;;;;;;0.40;0.40;;;26.20;77.40;;;;;;4960185;28;20205;-87
2023/07/15 01:54:40;;;;;;;1.35;0.60;;;26.20;77.60;;;;;;4967153;28;20194;-84
2023/07/15 01:57:08;;;;;;;2.70;0.82;;;26.10;77.60;;;;;;4965576;28;20216;-85
2023/07/15 01:59:38;;;;;;;0.63;0.63;;;26.20;77.50;;;;;;4962116;28;20707;-86
2023/07/15 02:02:07;;;;;;;0.60;0.40;;;26.20;77.80;;;;;;4964081;28;20210;-85
2023/07/15 02:04:36;;;;;;;0.77;0.63;;;26.20;77.50;;;;;;4972505;28;20198;-86
2023/07/15 02:07:05;;;;;;;0.40;0.40;;;26.20;77.40;;;;;;4965059;28;20226;-87
2023/07/15 02:09:34;;;;;;;1.27;0.68;;;26.20;77.40;;;;;;4948354;28;20198;-87
2023/07/15 02:12:02;;;;;;;1.02;0.88;;;26.20;77.50;;;;;;4968207;28;20189;-84
2023/07/15 02:14:31;;;;;;;0.45;0.45;;;26.10;77.70;;;;;;4967899;28;20317;-87
2023/07/15 02:17:01;;;;;;;0.85;0.68;;;26.20;77.60;;;;;;4967750;28;20209;-85
2023/07/15 02:19:31;;;;;;;0.40;0.40;;;26.10;77.60;;;;;;4970063;28;20268;-86
2023/07/15 02:22:00;;;;;;;0.30;0.30;;;26.10;77.60;;;;;;4960096;28;20897;-85
2023/07/15 02:24:29;;;;;;;0.47;0.38;;;26.10;77.70;;;;;;4954165;28;20230;-87
2023/07/15 02:26:57;;;;;;;0.47;0.47;;;26.10;77.70;;;;;;4965127;28;20222;-87
2023/07/15 02:29:26;;;;;;;0.80;0.57;;;26.10;77.50;;;;;;4967450;28;20285;-86
2023/07/15 02:31:54;;;;;;;0.80;0.80;;;26.10;77.40;;;;;;4972916;28;20198;-86
2023/07/15 02:34:24;;;;;;;0.73;0.70;;;26.10;77.50;;;;;;4963630;28;20205;-87
2023/07/15 02:36:54;;;;;;;0.50;0.50;;;26.10;77.70;;;;;;4971929;28;20608;-87
2023/07/15 02:39:22;;;;;;;1.30;1.08;;;26.10;77.60;;;;;;4941432;28;20293;-86
2023/07/15 02:41:51;;;;;;;0.82;0.57;;;26.10;77.50;;;;;;4968317;28;20202;-85
2023/07/15 02:44:20;;;;;;;1.23;0.98;;;26.10;77.50;;;;;;4969568;28;20221;-84
2023/07/15 02:46:48;;;;;;;1.67;0.80;;;26.10;77.60;;;;;;4965548;28;20221;-86
2023/07/15 02:49:18;;;;;;;0.63;0.60;;;26.10;77.60;;;;;;4962220;28;20194;-86
2023/07/15 02:51:48;;;;;;;0.93;0.45;;;26.00;77.60;;;;;;4966680;28;20607;-85
2023/07/15 02:54:16;;;;;;;1.60;0.98;;;26.00;77.80;;;;;;4966018;28;20560;-84
2023/07/15 02:56:45;;;;;;;0.50;0.50;;;26.00;78.00;;;;;;4969906;28;20224;-85
2023/07/15 02:59:14;;;;;;;0.50;0.35;;;26.00;78.10;;;;;;4959989;28;20198;-85
2023/07/15 03:01:43;;;;;;;1.25;0.68;;;25.90;78.10;;;;;;4968299;28;20573;-85
2023/07/15 03:04:12;;;;;;;0.65;0.63;;;25.90;78.20;;;;;;4969243;28;20197;-86
2023/07/15 03:06:41;;;;;;;0.90;0.55;;;25.90;78.20;;;;;;4963617;28;20226;-84
2023/07/15 03:09:11;;;;;;;0.20;0.20;;;25.90;78.30;;;;;;4967980;28;20194;-85
2023/07/15 03:11:39;;;;;;;1.33;0.85;;;25.90;78.20;;;;;;4964260;28;20205;-86
2023/07/15 03:14:08;;;;;;;0.40;0.40;;;25.90;78.00;;;;;;4962629;28;20217;-85
2023/07/15 03:16:37;;;;;;;0.45;0.43;;;25.90;78.10;;;;;;4964029;28;20631;-86
2023/07/15 03:19:06;;;;;;;0.47;0.47;;;25.90;78.30;;;;;;4961357;28;20206;-86
2023/07/15 03:21:35;;;;;;;1.15;0.93;;;25.90;78.40;;;;;;4970491;28;20194;-87
2023/07/15 03:24:04;;;;;;;0.80;0.80;;;25.80;78.40;;;;;;4970296;28;20201;-86
2023/07/15 03:26:34;;;;;;;0.32;0.30;;;25.90;79.00;;;;;;4965796;28;20225;-85
2023/07/15 03:29:05;;;;;;;0.30;0.30;;;25.90;78.20;;;;;;4959855;28;20197;-86
2023/07/15 03:31:34;;;;;;;1.02;0.52;;;25.80;78.10;;;;;;4967557;28;20198;-84
2023/07/15 03:34:03;;;;;;;1.45;1.05;;;25.90;78.50;;;;;;4963793;28;20194;-84
2023/07/15 03:36:32;;;;;;;0.35;0.35;;;25.90;78.30;;;;;;4960563;28;20206;-85
2023/07/15 03:39:01;;;;;;;2.55;0.40;;;25.90;78.30;;;;;;4964605;28;20197;-86
2023/07/15 03:41:29;;;;;;;1.80;0.60;;;25.90;78.30;;;;;;4963325;28;20678;-85
2023/07/15 03:43:59;;;;;;;0.57;0.57;;;25.90;78.30;;;;;;4963814;28;20655;-85
2023/07/15 03:46:28;;;;;;;1.55;1.15;;;25.90;78.50;;;;;;4960466;28;20195;-85
2023/07/15 03:48:56;;;;;;;0.63;0.52;;;25.90;78.60;;;;;;4971041;28;20235;-85
2023/07/15 03:51:25;;;;;;;0.40;0.40;;;25.90;78.70;;;;;;4967370;28;20194;-85
2023/07/15 03:53:53;;;;;;;0.63;0.47;;;25.90;78.60;;;;;;4966723;28;20656;-84
2023/07/15 03:56:22;;;;;;;0.70;0.50;;;25.90;78.80;;;;;;4961379;28;20205;-84
2023/07/15 03:58:50;;;;;;;0.32;0.32;;;25.90;78.80;;;;;;4968188;28;20203;-87
2023/07/15 04:01:20;;;;;;;7.53;0.63;;;25.90;78.80;;;;;;4967199;28;20205;-86
2023/07/15 04:03:49;;;;;;;0.95;0.60;;;25.90;78.70;;;;;;4960405;28;20202;-83
2023/07/15 04:06:18;;;;;;;2.55;1.48;;;25.90;78.80;;;;;;4964244;28;20190;-84
2023/07/15 04:08:49;;;;;;;1.40;1.17;;;25.90;78.80;;;;;;4949159;28;20198;-86
2023/07/15 04:11:18;;;;;;;1.38;0.70;;;25.90;78.90;;;;;;4961900;28;20210;-85
2023/07/15 04:13:47;;;;;;;2.47;0.95;;;25.90;78.80;;;;;;4961196;28;20201;-85
2023/07/15 04:16:15;;;;;;;0.50;0.30;;;25.90;79.10;;;;;;4965514;28;20201;-84
2023/07/15 04:18:46;;;;;;;0.50;0.50;;;25.90;79.10;;;;;;4961099;28;20201;-84
2023/07/15 04:21:15;;;;;;;0.50;0.50;;;26.00;79.10;;;;;;4964248;28;20194;-86
2023/07/15 04:23:44;;;;;;;0.45;0.45;;;26.00;79.00;;;;;;4963156;28;20640;-86
2023/07/15 04:26:14;;;;;;;0.73;0.50;;;26.00;79.10;;;;;;4967862;28;20589;-85
2023/07/15 04:28:43;;;;;;;1.30;1.05;;;26.10;79.10;;;;;;4974160;28;20227;-83
2023/07/15 04:31:12;;;;;;;3.17;1.63;;;26.10;79.20;;;;;;4972329;28;20269;-84
2023/07/15 04:33:40;;;;;;;3.80;2.53;;;26.10;79.40;;;;;;4974234;28;20194;-86
2023/07/15 04:36:10;;;;;;;3.38;2.00;;;26.10;79.10;;;;;;4967579;28;20254;-85
2023/07/15 04:38:39;;;;;;;1.63;0.88;;;26.10;78.80;;;;;;4957456;28;20276;-86
2023/07/15 04:41:07;;;;;;;2.55;1.48;;;26.10;78.60;;;;;;4973155;28;20212;-86
2023/07/15 04:43:36;;;;;;;0.50;0.50;;;26.20;78.80;;;;;;4965311;28;20211;-84
2023/07/15 04:46:06;;;;;;;1.35;0.90;;;26.20;78.60;;;;;;4971603;28;20205;-85
2023/07/15 04:48:35;;;;;;;2.47;1.02;;;26.30;78.70;;;;;;4972237;28;20225;-86
2023/07/15 04:51:04;;;;;;;1.48;1.20;;;26.30;78.60;;;;;;4975608;28;20194;-86
2023/07/15 04:53:34;;;;;;;1.50;0.80;;;26.30;78.60;;;;;;4971657;28;20261;-84
2023/07/15 04:56:03;;;;;;;1.38;1.15;;;26.30;78.40;;;;;;4968527;28;20194;-86
2023/07/15 04:58:32;;;;;;;3.17;0.88;;;26.30;78.30;;;;;;4967765;28;20202;-86
2023/07/15 05:01:00;;;;;;;1.35;1.25;;;26.30;78.30;;;;;;4967198;28;20671;-84
2023/07/15 05:03:29;;;;;;;0.77;0.60;;;26.30;78.10;;;;;;4965896;28;20194;-84
2023/07/15 05:06:00;;;;;;;1.58;0.93;;;26.40;78.20;;;;;;4974438;28;20287;-87
2023/07/15 05:08:29;;;;;;;0.50;0.50;;;26.40;78.20;;;;;;4963965;28;20217;-86
2023/07/15 05:10:59;;;;;;;0.75;0.47;;;26.40;77.90;;;;;;4970969;28;20198;-84
2023/07/15 05:13:27;;;;;;;0.50;0.50;;;26.50;77.90;;;;;;4971481;28;20190;-85
2023/07/15 05:15:56;;;;;;;2.08;1.38;;;26.50;77.80;;;;;;4962926;28;20200;-83
2023/07/15 05:18:25;;;;;;;0.82;0.80;;;26.50;77.80;;;;;;4968909;28;20208;-83
2023/07/15 05:20:53;;;;;;;1.15;0.88;;;26.60;77.80;;;;;;4972807;28;20233;-84
2023/07/15 05:23:23;;;;;;;2.03;1.20;;;26.70;77.90;;;;;;4954115;28;20197;-85
2023/07/15 05:25:51;;;;;;;6.38;1.00;;;26.70;77.70;;;;;;4966481;28;20214;-85
2023/07/15 05:28:22;;;;;;;2.67;0.77;;;26.70;78.50;;;;;;4961961;28;20229;-88
2023/07/15 05:30:51;;;;;;;1.13;0.68;;;26.70;77.60;;;;;;4952394;28;20296;-86
2023/07/15 05:33:19;;;;;;;1.38;0.85;;;26.80;77.40;;;;;;4967382;28;20201;-83
2023/07/15 05:35:48;;;;;;;1.20;0.80;;;26.90;78.30;;;;;;4970414;28;20210;-84
2023/07/15 05:38:17;;;;;;;1.48;0.80;;;26.90;77.50;;;;;;4971171;28;20216;-85
2023/07/15 05:40:47;;;;;;;0.73;0.73;;;27.00;77.50;;;;;;4968320;28;20197;-87
2023/07/15 05:43:15;;;;;;;1.10;1.00;;;27.00;77.20;;;;;;4968804;28;20216;-84
2023/07/15 05:45:45;;;;;;;0.60;0.60;;;27.10;77.10;;;;;;4964814;28;20203;-84
2023/07/15 05:48:15;;;;;;;0.88;0.75;;;27.10;77.10;;;;;;4968005;28;20312;-91
2023/07/15 05:50:43;;;;;;;1.85;0.98;;;27.20;76.70;;;;;;4968517;28;20205;-86
2023/07/15 05:53:12;;;;;;;1.13;0.65;;;27.20;76.60;;;;;;4970769;28;20745;-87
2023/07/15 05:55:40;;;;;;;0.30;0.30;;;27.30;76.50;;;;;;4966241;28;20577;-85
2023/07/15 05:58:10;;;;;;;0.52;0.52;;;27.30;76.40;;;;;;4971829;28;20213;-86
2023/07/15 06:00:39;;;;;;;0.60;0.60;;;27.40;76.20;;;;;;4970711;28;20571;-87
2023/07/15 06:03:10;;;;;;;0.35;0.35;;;27.50;76.10;;;;;;4968696;28;20246;-87
2023/07/15 06:05:38;;;;;;;1.33;0.80;;;27.50;76.10;;;;;;4952865;28;20298;-86
2023/07/15 06:08:07;;;;;;;0.93;0.43;;;27.50;76.00;;;;;;4971195;28;20236;-86
2023/07/15 06:10:35;;;;;;;1.25;0.73;;;27.60;75.80;;;;;;4961139;28;20213;-86
2023/07/15 06:13:04;;;;;;;0.57;0.57;;;27.60;75.50;;;;;;4964409;28;20293;-85
2023/07/15 06:15:32;;;;;;;2.45;0.80;;;27.70;75.30;;;;;;4963665;28;20213;-87
2023/07/15 06:18:01;;;;;;;2.25;1.17;;;27.70;74.80;;;;;;4968434;28;20209;-84
2023/07/15 06:20:32;;;;;;;0.30;0.30;;;27.80;74.80;;;;;;4961458;28;20223;-84
2023/07/15 06:23:00;;;;;;;0.63;0.63;;;27.90;74.90;;;;;;4970106;28;20198;-85
2023/07/15 06:25:29;;;;;;;1.40;0.63;;;27.90;74.70;;;;;;4963345;28;20220;-87
2023/07/15 06:27:58;;;;;;;0.95;0.65;;;28.00;73.80;;;;;;4966881;28;20206;-85
2023/07/15 06:30:27;;;;;;;1.50;1.13;;;28.00;73.10;;;;;;4962985;28;20202;-83
2023/07/15 06:32:56;;;;;;;0.43;0.43;;;28.10;73.90;;;;;;4969333;28;20659;-84
2023/07/15 06:35:25;;;;;;;0.63;0.47;;;28.10;72.80;;;;;;4964067;28;20281;-83
2023/07/15 06:37:55;;;;;;;0.40;0.40;;;28.20;72.50;;;;;;4968294;28;20204;-85
2023/07/15 06:40:23;;;;;;;0.65;0.65;;;28.20;72.70;;;;;;4962830;28;20221;-84
2023/07/15 06:42:52;;;;;;;0.50;0.50;;;28.30;72.70;;;;;;4970756;28;20788;-86
2023/07/15 06:45:22;;;;;;;0.30;0.30;;;28.30;72.60;;;;;;4968086;28;20749;-84
2023/07/15 06:47:50;;;;;;;0.52;0.52;;;28.40;72.50;;;;;;4963613;28;20222;-86
2023/07/15 06:50:19;;;;;;;0.55;0.52;;;28.50;72.60;;;;;;4963119;28;20220;-86
2023/07/15 06:52:51;;;;;;;1.05;0.52;;;28.50;73.00;;;;;;4968475;28;20205;-86
2023/07/15 06:55:24;;;;;;;0.47;0.47;;;28.50;71.20;;;;;;4968638;28;20205;-87
2023/07/15 06:57:53;;;;;;;1.00;0.90;;;28.50;71.10;;;;;;4967235;28;20206;-85
2023/07/15 07:00:24;;;;;;;0.40;0.40;;;28.60;71.40;;;;;;4964441;28;20305;-84
2023/07/15 07:02:53;;;;;;;4.25;1.35;;;28.60;70.80;;;;;;4965035;28;20205;-83
2023/07/15 07:05:22;;;;;;;0.28;0.28;;;28.70;71.10;;;;;;4965173;28;20233;-86
2023/07/15 07:07:51;;;;;;;1.30;0.82;;;28.80;71.30;;;;;;4962603;28;20208;-86
2023/07/15 07:10:19;;;;;;;0.25;0.25;;;28.80;71.20;;;;;;4967053;28;20254;-86
2023/07/15 07:12:52;;;;;;;0.98;0.50;;;28.90;71.20;;;;;;4969802;28;20198;-89
2023/07/15 07:15:20;;;;;;;0.25;0.25;;;28.90;70.90;;;;;;4970296;28;20575;-86
2023/07/15 07:17:50;;;;;;;0.60;0.60;;;28.90;69.50;;;;;;4967667;28;20226;-83
2023/07/15 07:20:20;;;;;;;0.85;0.63;;;29.00;69.90;;;;;;4967603;28;20320;-86
2023/07/15 07:22:49;;;;;;;1.40;0.73;;;29.00;70.00;;;;;;4942833;28;20205;-85
2023/07/15 07:25:18;;;;;;;0.90;0.55;;;29.10;69.80;;;;;;4967315;28;20197;-87
2023/07/15 07:28:01;;;;;;;0.47;0.43;;;29.10;69.70;;;;;;4963291;28;20207;-85
2023/07/15 07:30:32;;;;;;;1.00;0.77;;;29.10;68.80;;;;;;4963041;28;20262;-86
2023/07/15 07:33:01;;;;;;;0.80;0.80;;;29.20;68.80;;;;;;4963148;28;20270;-86
2023/07/15 07:35:29;;;;;;;0.38;0.38;;;29.20;68.80;;;;;;4964680;28;20194;-85
2023/07/15 07:37:58;;;;;;;0.32;0.32;;;29.20;68.50;;;;;;4963025;28;20204;-84
2023/07/15 07:40:27;;;;;;;1.55;1.15;;;29.30;68.60;;;;;;4950638;28;20194;-84
2023/07/15 07:42:58;;;;;;;0.85;0.35;;;29.30;68.50;;;;;;4950021;28;20205;-83
2023/07/15 07:45:29;;;;;;;0.30;0.30;;;29.30;67.50;;;;;;4961946;28;20196;-85
2023/07/15 07:47:57;;;;;;;0.20;0.20;;;29.40;68.20;;;;;;4966740;28;20330;-86
2023/07/15 07:50:27;;;;;;;0.77;0.70;;;29.40;67.70;;;;;;4961215;28;20317;-86
2023/07/15 07:52:55;;;;;;;0.93;0.93;;;29.40;67.70;;;;;;4965769;28;20249;-86
2023/07/15 07:55:24;;;;;;;0.47;0.40;;;29.40;67.60;;;;;;4960364;28;20189;-86
2023/07/15 07:57:52;;;;;;;0.45;0.45;;;29.50;67.20;;;;;;4965633;28;20673;-87
2023/07/15 08:00:22;;;;;;;0.35;0.35;;;29.50;67.30;;;;;;4964710;28;20221;-86
2023/07/15 08:02:51;;;;;;;0.88;0.77;;;29.50;67.50;;;;;;4962905;28;20763;-86
2023/07/15 08:05:20;;;;;;;0.77;0.60;;;29.60;66.90;;;;;;4965024;28;20552;-91
2023/07/15 08:07:49;;;;;;;0.30;0.30;;;29.60;67.20;;;;;;4962702;28;20234;-86
2023/07/15 08:10:20;;;;;;;0.55;0.38;;;29.60;67.10;;;;;;4966891;28;20584;-89
2023/07/15 08:12:48;;;;;;;0.52;0.50;;;29.70;67.00;;;;;;4964528;28;20201;-87
2023/07/15 08:15:17;;;;;;;0.30;0.30;;;29.70;66.90;;;;;;4966017;28;20226;-88
2023/07/15 08:17:47;;;;;;;1.55;0.80;;;29.80;66.90;;;;;;4963973;28;20201;-88
2023/07/15 08:20:15;;;;;;;1.90;0.35;;;29.80;67.00;;;;;;4961172;28;20230;-85
2023/07/15 08:22:44;;;;;;;0.40;0.40;;;29.90;66.90;;;;;;4960225;28;20193;-85
2023/07/15 08:25:12;;;;;;;0.75;0.40;;;29.90;67.00;;;;;;4962957;28;20256;-86
2023/07/15 08:27:41;;;;;;;0.50;0.50;;;29.90;66.70;;;;;;4962246;28;20570;-85
2023/07/15 08:30:10;;;;;;;0.60;0.38;;;29.90;66.20;;;;;;4962945;28;20225;-87
2023/07/15 08:32:38;;;;;;;0.40;0.40;;;30.00;66.10;;;;;;4965199;28;20221;-86
2023/07/15 08:35:09;;;;;;;1.25;0.50;;;30.00;66.10;;;;;;4960132;28;20198;-86
2023/07/15 08:37:37;;;;;;;0.50;0.50;;;30.00;65.70;;;;;;4962041;28;20221;-85
2023/07/15 08:40:09;;;;;;;0.65;0.43;;;30.10;65.80;;;;;;4960745;28;20194;-87
2023/07/15 08:42:38;;;;;;;0.30;0.30;;;30.20;65.60;;;;;;4962310;28;20201;-86
2023/07/15 08:45:08;;;;;;;0.45;0.40;;;30.20;65.10;;;;;;4957060;28;20221;-86
2023/07/15 08:47:40;;;;;;;0.52;0.52;;;30.30;65.60;;;;;;4963494;28;20206;-86
2023/07/15 08:50:12;;;;;;;0.68;0.43;;;30.30;66.40;;;;;;4954949;28;20766;-87
2023/07/15 08:52:42;;;;;;;1.15;0.38;;;30.30;65.50;;;;;;4959155;28;20185;-89
2023/07/15 08:55:11;;;;;;;0.70;0.60;;;30.30;65.10;;;;;;4967943;28;20648;-87
2023/07/15 08:57:40;;;;;;;0.95;0.77;;;30.40;64.60;;;;;;4954501;28;20202;-86
2023/07/15 09:00:11;;;;;;;0.40;0.40;;;30.40;64.50;;;;;;4962454;28;20204;-88
2023/07/15 09:02:40;;;;;;;0.63;0.63;;;30.40;64.50;;;;;;4965044;28;20198;-87
2023/07/15 09:05:13;;;;;;;0.82;0.40;;;30.50;64.40;;;;;;4948101;28;20205;-87
2023/07/15 09:07:51;;;;;;;0.50;0.50;;;30.50;63.70;;;;;;4949679;28;20552;-85
2023/07/15 09:10:19;;;;;;;0.80;0.65;;;30.60;64.60;;;;;;4945257;28;20268;-86
2023/07/15 09:12:53;;;;;;;0.38;0.38;;;30.60;64.40;;;;;;4964763;28;20257;-86
2023/07/15 09:15:22;;;;;;;1.85;0.68;;;30.60;64.10;;;;;;4965092;28;20194;-85
2023/07/15 09:17:52;;;;;;;2.72;1.02;;;30.60;63.00;;;;;;4969666;28;20202;-85
2023/07/15 09:20:24;;;;;;;0.73;0.50;;;30.60;62.90;;;;;;4963772;28;20304;-84
2023/07/15 09:22:55;;;;;;;0.40;0.40;;;30.60;62.50;;;;;;4948159;28;20640;-88
2023/07/15 09:25:25;;;;;;;0.47;0.45;;;30.70;63.30;;;;;;4960353;28;20285;-86
2023/07/15 09:27:55;;;;;;;0.80;0.63;;;30.70;63.50;;;;;;4967109;28;20260;-87
2023/07/15 09:30:24;;;;;;;1.00;0.57;;;30.80;63.80;;;;;;4971778;28;20236;-88
2023/07/15 09:32:53;;;;;;;0.30;0.30;;;30.80;63.30;;;;;;4968234;28;20236;-87
2023/07/15 09:35:23;;;;;;;0.22;0.22;;;30.80;63.50;;;;;;4964872;28;20649;-85
2023/07/15 09:37:53;;;;;;;0.30;0.30;;;30.90;63.60;;;;;;4967902;28;20202;-86
2023/07/15 09:40:22;;;;;;;0.40;0.40;;;31.00;63.80;;;;;;4949180;28;20193;-85
2023/07/15 09:42:52;;;;;;;0.80;0.43;;;31.00;63.70;;;;;;4973910;28;20545;-88
2023/07/15 09:45:34;;;;;;;0.53;0.47;;;31.10;64.30;;;;;;4969176;28;20542;-86
2023/07/15 09:48:05;;;;;;;0.63;0.63;;;31.20;64.00;;;;;;4968935;28;20450;-86
2023/07/15 09:50:37;;;;;;;0.40;0.40;;;31.20;64.00;;;;;;4969183;28;20880;-86
2023/07/15 09:53:07;;;;;;;0.47;0.35;;;31.20;63.80;;;;;;4969803;28;20193;-88
2023/07/15 09:55:37;;;;;;;0.70;0.52;;;31.30;63.80;;;;;;4965892;28;20194;-87
2023/07/15 09:58:16;;;;;;;2.03;0.38;;;31.40;63.90;;;;;;4970031;28;20186;-91
2023/07/15 10:00:49;;;;;;;0.65;0.40;;;31.40;62.50;;;;;;4969327;28;20245;-89
2023/07/15 10:03:24;;;;;;;0.40;0.40;;;31.40;61.40;;;;;;4967824;28;20190;-86
2023/07/15 10:05:55;;;;;;;2.20;0.85;;;31.40;61.90;;;;;;4968826;28;21053;-86
2023/07/15 10:08:24;;;;;;;0.75;0.65;;;31.50;62.40;;;;;;4967316;28;20190;-86
2023/07/15 10:10:53;;;;;;;0.28;0.28;;;31.50;63.30;;;;;;4967255;28;20255;-87
2023/07/15 10:13:22;;;;;;;0.63;0.63;;;31.60;62.60;;;;;;4971404;28;20201;-87
2023/07/15 10:15:51;;;;;;;0.40;0.40;;;31.60;61.50;;;;;;4969092;28;20588;-85
2023/07/15 10:18:22;;;;;;;0.75;0.55;;;31.60;61.20;;;;;;4966805;28;20205;-86
2023/07/15 10:20:56;;;;;;;1.10;0.60;;;31.70;61.50;;;;;;4972042;28;20328;-87
2023/07/15 10:23:28;;;;;;;0.40;0.40;;;31.80;61.50;;;;;;4968967;28;20593;-87
2023/07/15 10:26:03;;;;;;;0.30;0.30;;;31.80;60.60;;;;;;4969716;28;20198;-86
2023/07/15 10:28:34;;;;;;;1.17;0.52;;;31.90;61.10;;;;;;4968496;28;20673;-87
2023/07/15 10:31:11;;;;;;;2.15;0.60;;;31.90;60.70;;;;;;4971881;28;20228;-85
2023/07/15 10:33:54;;;;;;;0.57;0.57;;;31.90;60.20;;;;;;4970204;28;20761;-86
2023/07/15 10:36:41;;;;;;;0.50;0.50;;;32.00;60.80;;;;;;4968229;28;20318;-85
2023/07/15 10:39:14;;;;;;;1.15;0.63;;;32.00;60.50;;;;;;4969292;28;20208;-87
2023/07/15 10:41:45;;;;;;;0.75;0.47;;;32.10;60.90;;;;;;4968918;28;20206;-88
2023/07/15 10:44:20;;;;;;;0.38;0.35;;;32.20;60.70;;;;;;4964995;28;20740;-87
2023/07/15 10:46:52;;;;;;;0.88;0.70;;;32.20;60.40;;;;;;4955825;28;20224;-84
2023/07/15 10:49:21;;;;;;;0.47;0.30;;;32.30;60.90;;;;;;4963482;28;20193;-86
2023/07/15 10:51:54;;;;;;;0.60;0.60;;;32.40;61.30;;;;;;4968639;28;20253;-85
2023/07/15 10:54:24;;;;;;;0.40;0.40;;;32.40;61.30;;;;;;4971116;28;20189;-87
2023/07/15 10:56:52;;;;;;;0.40;0.40;;;32.50;60.90;;;;;;4962310;28;20213;-86
2023/07/15 10:59:24;;;;;;;0.30;0.30;;;32.50;60.20;;;;;;4969879;28;20686;-85
2023/07/15 11:01:52;;;;;;;0.57;0.55;;;32.60;59.90;;;;;;4964555;28;20190;-87
2023/07/15 11:04:21;;;;;;;1.92;0.45;;;32.50;58.90;;;;;;4963601;28;20194;-84
2023/07/15 11:06:51;;;;;;;0.63;0.63;;;32.50;59.10;;;;;;4961706;28;20225;-86
2023/07/15 11:09:21;;;;;;;0.40;0.40;;;32.60;58.90;;;;;;4967637;28;20589;-86
2023/07/15 11:11:50;;;;;;;0.55;0.45;;;32.60;59.20;;;;;;4963899;28;20308;-85
2023/07/15 11:14:23;;;;;;;0.85;0.45;;;32.70;59.30;;;;;;4960889;28;20208;-85
2023/07/15 11:16:52;;;;;;;0.77;0.55;;;32.70;59.30;;;;;;4969513;28;20198;-86
2023/07/15 11:19:21;;;;;;;0.47;0.40;;;32.70;59.60;;;;;;4957910;28;20225;-85
2023/07/15 11:21:53;;;;;;;1.05;0.77;;;32.80;59.70;;;;;;4959315;28;20216;-85
2023/07/15 11:24:23;;;;;;;0.68;0.68;;;32.90;59.80;;;;;;4965704;28;20189;-86
2023/07/15 11:26:51;;;;;;;0.60;0.47;;;32.90;58.80;;;;;;4970303;28;20194;-87
2023/07/15 11:29:21;;;;;;;0.68;0.50;;;33.00;58.90;;;;;;4966018;28;20197;-86
2023/07/15 11:31:51;;;;;;;1.48;0.93;;;33.00;58.90;;;;;;4967416;28;20214;-86
2023/07/15 11:34:21;;;;;;;1.50;1.05;;;33.00;58.40;;;;;;4957283;28;20202;-85
2023/07/15 11:36:53;;;;;;;0.30;0.30;;;33.10;58.60;;;;;;4969526;28;20559;-89
2023/07/15 11:39:22;;;;;;;0.60;0.50;;;33.10;58.60;;;;;;4967632;28;20198;-87
2023/07/15 11:41:54;;;;;;;0.82;0.82;;;33.20;58.40;;;;;;4971427;28;20674;-88
2023/07/15 11:44:23;;;;;;;0.57;0.40;;;33.20;58.20;;;;;;4963603;28;20209;-85
2023/07/15 11:46:56;;;;;;;0.63;0.63;;;33.20;58.40;;;;;;4968611;28;20240;-88
2023/07/15 11:49:25;;;;;;;1.50;1.05;;;33.20;58.40;;;;;;4967832;28;20198;-87
2023/07/15 11:51:57;;;;;;;0.45;0.45;;;33.20;58.50;;;;;;4968369;28;20237;-87
2023/07/15 11:54:25;;;;;;;0.55;0.43;;;33.30;58.60;;;;;;4963679;28;20224;-88
2023/07/15 11:56:54;;;;;;;0.77;0.60;;;33.30;57.30;;;;;;4968103;28;20201;-88
2023/07/15 11:59:29;;;;;;;0.57;0.43;;;33.40;57.60;;;;;;4965168;28;20265;-89
2023/07/15 12:01:59;;;;;;;1.02;0.50;;;33.40;57.80;;;;;;4969653;28;20690;-88
2023/07/15 12:04:29;;;;;;;0.57;0.57;;;33.40;58.10;;;;;;4973898;28;20558;-89
2023/07/15 12:07:04;;;;;;;1.08;0.75;;;33.40;57.80;;;;;;4971772;28;20208;-89
2023/07/15 12:09:34;;;;;;;0.40;0.40;;;33.50;57.80;;;;;;4966578;28;20348;-85
2023/07/15 12:12:02;;;;;;;0.47;0.40;;;33.50;57.80;;;;;;4968758;28;20222;-87
2023/07/15 12:14:33;;;;;;;0.50;0.50;;;33.60;58.10;;;;;;4965969;28;20198;-88
2023/07/15 12:17:03;;;;;;;0.30;0.30;;;33.60;58.00;;;;;;4961050;28;20284;-86
2023/07/15 12:19:32;;;;;;;5.93;1.17;;;33.60;57.80;;;;;;4961390;28;20336;-85
2023/07/15 12:22:02;;;;;;;0.32;0.32;;;33.70;57.70;;;;;;4970404;28;20292;-87
2023/07/15 12:24:31;;;;;;;0.30;0.30;;;33.80;57.60;;;;;;4961772;28;20281;-86
2023/07/15 12:26:59;;;;;;;0.40;0.32;;;33.80;56.80;;;;;;4967401;28;20205;-87
2023/07/15 12:29:28;;;;;;;1.65;1.23;;;33.80;57.00;;;;;;4965891;28;20206;-87
2023/07/15 12:31:56;;;;;;;0.50;0.50;;;33.90;56.10;;;;;;4969219;28;20218;-88
2023/07/15 12:34:25;;;;;;;0.63;0.63;;;33.90;56.60;;;;;;4969805;28;20568;-88
2023/07/15 12:36:56;;;;;;;0.52;0.52;;;33.90;56.50;;;;;;4971178;28;20198;-91
2023/07/15 12:39:26;;;;;;;0.50;0.50;;;34.00;57.00;;;;;;4969229;28;20198;-88
2023/07/15 12:41:54;;;;;;;0.40;0.40;;;34.10;57.00;;;;;;4968833;28;20186;-87
2023/07/15 12:44:23;;;;;;;0.22;0.22;;;34.10;56.80;;;;;;4966056;28;20632;-89
2023/07/15 12:46:51;;;;;;;0.68;0.50;;;34.10;57.00;;;;;;4961858;28;20202;-87
2023/07/15 12:49:20;;;;;;;0.50;0.43;;;34.20;57.10;;;;;;4967156;28;20202;-88
2023/07/15 12:51:49;;;;;;;1.42;0.60;;;34.20;56.00;;;;;;4973333;28;20225;-89
2023/07/15 12:54:17;;;;;;;0.65;0.55;;;34.20;56.70;;;;;;4968432;28;20665;-88
2023/07/15 12:56:47;;;;;;;0.47;0.40;;;34.30;56.20;;;;;;4965622;28;20216;-87
2023/07/15 12:59:15;;;;;;;0.43;0.43;;;34.40;57.10;;;;;;4974739;28;20208;-87
2023/07/15 13:01:44;;;;;;;0.80;0.80;;;34.40;56.10;;;;;;4965550;28;20214;-88